Latest Coastal Weather Observations for Charles Point

IDD60701

Issued at 2:55 am CST Thursday 31 July 2014 (issued every 10 minutes, with the page automatically refreshed every 10 minutes)

About coastal observations | Map of coastal stations | Coastal observations for NT | Marine services | Other Formats
Station Details ID: 014031 Name: CHARLES POINT Lat: -12.39 Lon: 130.63 Height: 14.0 m
Data from the previous 72 hours. | See also: Recent months for locations in Northern Territory
Date/Time
CST
Temp

°C
Wind Pressure Rain
since 9am
mm
Weather Cloud Vis
km
Sea
Height
m
Swell
Dir
 
Speed
knots
Gust
knots
hPa Trend Height
m
Period
s
Dir
31/02:30am 21.6 SSE 3 3 1014.6 - 0.0 - - - - - - -
31/02:00am 21.5 S 3 4 1014.7 - 0.0 - - - - - - -
31/01:30am 21.8 SSE 3 4 1014.9 - 0.0 - - - - - - -
31/01:00am 21.7 S 3 3 1015.1 - 0.0 - - - - - - -
31/12:30am 21.9 S 3 4 1014.9 - 0.0 - - - - - - -
31/12:00am 21.9 S 3 4 1014.8 - 0.0 - - - - - - -
 
Date/Time
CST
Temp

°C
Wind Pressure Rain
since 9am
mm
Weather Cloud Vis
km
Sea
Height
m
Swell
Dir
 
Speed
knots
Gust
knots
hPa Trend Height
m
Period
s
Dir
30/11:30pm 21.9 S 3 4 1014.8 - 0.0 - - - - - - -
30/11:00pm 22.1 ESE 3 3 1014.9 - 0.0 - - - - - - -
30/10:30pm 22.1 ESE 2 3 1014.9 - 0.0 - - - - - - -
30/10:00pm 22.6 CALM 0 0 1014.8 - 0.0 - - - - - - -
30/09:30pm 23.4 CALM 0 0 1014.6 - 0.0 - - - - - - -
30/09:00pm 24.0 CALM 0 0 1014.5 - 0.0 - - - - - - -
30/08:30pm 24.5 CALM 0 2 1014.4 - 0.0 - - - - - - -
30/08:00pm 25.8 ENE 2 4 1014.0 - 0.0 - - - - - - -
30/07:30pm 26.3 ENE 3 5 1013.6 - 0.0 - - - - - - -
30/07:00pm 26.5 ENE 6 10 1013.3 - 0.0 - - - - - - -
30/06:30pm 26.7 NE 7 11 1012.9 - 0.0 - - - - - - -
30/06:00pm 26.9 NE 11 13 1012.6 - 0.0 - - - - - - -
30/05:30pm 26.9 NNE 11 16 1012.3 - 0.0 - - - - - - -
30/05:00pm 27.3 NNE 12 15 1012.3 - 0.0 - - - - - - -
30/04:30pm 27.3 NNE 9 14 1012.1 - 0.0 - - - - - - -
30/04:00pm 27.8 NNE 9 14 1012.3 - 0.0 - - - - - - -
30/03:30pm 27.7 N 8 11 1012.3 - 0.0 - - - - - - -
30/03:00pm 28.0 NNE 7 10 1012.6 - 0.0 - - - - - - -
30/02:30pm 27.8 NNE 7 10 1013.1 - 0.0 - - - - - - -
30/02:00pm 27.5 N 11 13 1013.6 - 0.0 - - - - - - -
30/01:30pm 28.6 NNE 7 9 1013.8 - 0.0 - - - - - - -
30/01:00pm 29.4 NNE 6 9 1014.4 - 0.0 - - - - - - -
30/12:30pm 29.5 ENE 6 10 1014.7 - 0.0 - - - - - - -
30/12:00pm 29.8 E 6 12 1015.1 - 0.0 - - - - - - -
30/11:30am 29.7 E 6 15 1015.7 - 0.0 - - - - - - -
30/11:00am 28.9 E 6 10 1016.3 - 0.0 - - - - - - -
30/10:30am 28.1 ESE 6 12 1016.4 - 0.0 - - - - - - -
30/10:00am 27.1 E 4 9 1016.5 - 0.0 - - - - - - -
30/09:30am 25.8 E 6 9 1016.4 - 0.0 - - - - - - -
30/09:00am 25.3 ESE 4 6 1016.6 - 0.0 - - - - - - -
30/08:30am 23.9 SSE 4 6 1016.5 - 0.0 - - - - - - -
30/08:00am 22.9 SSE 3 5 1016.3 - 0.0 - - - - - - -
30/07:30am 21.2 SSE 3 3 1015.7 - 0.0 - - - - - - -
30/07:00am 20.5 S 3 4 1015.6 - 0.0 - - - - - - -
30/06:30am 20.7 SE 2 2 1015.0 - 0.0 - - - - - - -
30/06:00am 21.0 SE 2 2 1014.9 - 0.0 - - - - - - -
30/05:30am 21.5 SE 2 2 1014.9 - 0.0 - - - - - - -
30/05:00am 21.5 SE 1 2 1015.0 - 0.0 - - - - - - -
30/04:30am 21.2 SE 1 2 1014.7 - 0.0 - - - - - - -
30/04:00am 21.6 SE 2 3 1014.7 - 0.0 - - - - - - -
30/03:30am 22.3 SSE 3 4 1014.7 - 0.0 - - - - - - -
30/03:00am 23.9 E 2 4 1014.8 - 0.0 - - - - - - -
30/02:30am 24.5 ENE 4 7 1014.7 - 0.0 - - - - - - -
30/02:00am 24.7 NE 4 6 1015.0 - 0.0 - - - - - - -
30/01:30am 25.0 NE 6 8 1015.0 - 0.0 - - - - - - -
30/01:00am 23.0 ENE 2 7 1015.3 - 0.0 - - - - - - -
30/12:30am 22.5 SSE 2 3 1015.3 - 0.0 - - - - - - -
30/12:00am 23.0 ESE 1 2 1015.2 - 0.0 - - - - - - -
 
Date/Time
CST
Temp

°C
Wind Pressure Rain
since 9am
mm
Weather Cloud Vis
km
Sea
Height
m
Swell
Dir
 
Speed
knots
Gust
knots
hPa Trend Height
m
Period
s
Dir
29/11:30pm 23.9 E 2 3 1015.2 - 0.0 - - - - - - -
29/11:00pm 23.5 ENE 1 2 1015.3 - 0.0 - - - - - - -
29/10:30pm 24.6 ENE 1 3 1015.1 - 0.0 - - - - - - -
29/10:00pm 25.3 ENE 2 4 1015.0 - 0.0 - - - - - - -
29/09:30pm 25.8 ENE 3 5 1014.8 - 0.0 - - - - - - -
29/09:00pm 26.1 ENE 3 5 1014.7 - 0.0 - - - - - - -
29/08:30pm 26.2 ENE 5 8 1014.4 - 0.0 - - - - - - -
29/08:00pm 26.3 ENE 7 11 1014.3 - 0.0 - - - - - - -
29/07:30pm 26.3 ENE 7 10 1013.7 - 0.0 - - - - - - -
29/07:00pm 26.4 NE 9 12 1013.3 - 0.0 - - - - - - -
29/06:30pm 26.6 NE 11 14 1012.9 - 0.0 - - - - - - -
29/06:00pm 26.9 NE 10 13 1012.8 - 0.0 - - - - - - -
29/05:30pm 27.1 NE 10 14 1012.6 - 0.0 - - - - - - -
29/05:00pm 27.3 NE 10 14 1012.6 - 0.0 - - - - - - -
29/04:30pm 27.4 NE 10 12 1012.5 - 0.0 - - - - - - -
29/04:00pm 27.4 NE 10 15 1012.5 - 0.0 - - - - - - -
29/03:30pm 27.5 NE 10 14 1012.4 - 0.0 - - - - - - -
29/03:00pm 28.0 NE 10 14 1012.7 - 0.0 - - - - - - -
29/02:30pm 28.4 NNE 10 16 1013.0 - 0.0 - - - - - - -
29/02:00pm 31.5 E 7 13 1013.6 - 0.0 - - - - - - -
29/01:30pm 31.4 E 8 14 1013.7 - 0.0 - - - - - - -
29/01:00pm 30.8 E 7 13 1014.5 - 0.0 - - - - - - -
29/12:30pm 30.5 E 7 12 1014.8 - 0.0 - - - - - - -
29/12:00pm 29.8 E 6 10 1015.5 - 0.0 - - - - - - -
29/11:30am 29.1 E 7 12 1015.9 - 0.0 - - - - - - -
29/11:00am 27.9 E 6 9 1016.4 - 0.0 - - - - - - -
29/10:30am 27.4 E 6 11 1016.7 - 0.0 - - - - - - -
29/10:00am 26.3 E 6 9 1016.8 - 0.0 - - - - - - -
29/09:30am 25.8 E 5 8 1016.7 - 0.0 - - - - - - -
29/09:00am 25.9 ESE 3 6 1016.7 - 0.0 - - - - - - -
29/08:30am 24.3 SE 4 6 1016.6 - 0.0 - - - - - - -
29/08:00am 23.3 SE 4 6 1016.4 - 0.0 - - - - - - -
29/07:30am 22.1 SSE 4 5 1016.1 - 0.0 - - - - - - -
29/07:00am 21.0 SSE 3 4 1015.8 - 0.0 - - - - - - -
29/06:30am 20.6 SSE 3 3 1015.5 - 0.0 - - - - - - -
29/06:00am 21.2 SSE 3 4 1015.2 - 0.0 - - - - - - -
29/05:30am 20.9 SSE 3 4 1015.1 - 0.0 - - - - - - -
29/05:00am 21.4 SSE 3 4 1015.0 - 0.0 - - - - - - -
29/04:30am 21.8 SSE 3 4 1014.8 - 0.0 - - - - - - -
29/04:00am 21.8 SSE 3 4 1014.8 - 0.0 - - - - - - -
29/03:30am 22.1 SSE 3 5 1014.6 - 0.0 - - - - - - -
29/03:00am 22.4 SSE 3 5 1014.6 - 0.0 - - - - - - -
29/02:30am 22.9 SE 3 5 1014.8 - 0.0 - - - - - - -
29/02:00am 22.8 SE 4 5 1015.2 - 0.0 - - - - - - -
29/01:30am 22.9 SSE 4 5 1015.1 - 0.0 - - - - - - -
29/01:00am 22.4 S 4 5 1015.2 - 0.0 - - - - - - -
29/12:30am 22.7 S 4 6 1015.3 - 0.0 - - - - - - -
29/12:00am 22.7 S 3 5 1015.3 - 0.0 - - - - - - -
 
Date/Time
CST
Temp

°C
Wind Pressure Rain
since 9am
mm
Weather Cloud Vis
km
Sea
Height
m
Swell
Dir
 
Speed
knots
Gust
knots
hPa Trend Height
m
Period
s
Dir
28/11:30pm 23.2 S 4 6 1015.2 - 0.0 - - - - - - -
28/11:00pm 22.9 S 4 6 1015.3 - 0.0 - - - - - - -
28/10:30pm 22.5 S 4 5 1014.9 - 0.0 - - - - - - -
28/10:00pm 22.5 ESE 1 2 1015.0 - 0.0 - - - - - - -
28/09:30pm 22.8 SE 1 1 1014.9 - 0.0 - - - - - - -
28/09:00pm 23.5 SE 2 3 1014.7 - 0.0 - - - - - - -
28/08:30pm 24.8 ENE 2 5 1014.4 - 0.0 - - - - - - -
28/08:00pm 26.1 NNE 7 9 1014.2 - 0.0 - - - - - - -
28/07:30pm 26.2 NE 9 12 1013.8 - 0.0 - - - - - - -
28/07:00pm 26.2 NNE 10 13 1013.4 - 0.0 - - - - - - -
28/06:30pm 26.6 NE 12 15 1012.9 - 0.0 - - - - - - -
28/06:00pm 26.9 NE 10 14 1012.6 - 0.0 - - - - - - -
28/05:30pm 27.2 NE 9 13 1012.4 - 0.0 - - - - - - -
28/05:00pm 27.2 NNE 10 15 1012.5 - 0.0 - - - - - - -
28/04:30pm 27.1 NNE 9 12 1012.3 - 0.0 - - - - - - -
28/04:00pm 27.1 NNE 11 15 1012.5 - 0.0 - - - - - - -
28/03:30pm 27.4 NNE 12 15 1012.7 - 0.0 - - - - - - -
28/03:00pm 27.2 NNE 9 12 1013.0 - 0.0 - - - - - - -
28/02:30pm 27.5 NNE 9 13 1013.5 - 0.0 - - - - - - -
28/02:00pm 27.4 NNE 8 14 1014.0 - 0.0 - - - - - - -
28/01:30pm 27.2 N 11 12 1014.4 - 0.0 - - - - - - -
28/01:00pm 30.0 E 7 11 1014.9 - 0.0 - - - - - - -
28/12:30pm 30.2 E 8 13 1015.2 - 0.0 - - - - - - -
28/12:00pm 29.3 E 7 13 1015.7 - 0.0 - - - - - - -
28/11:30am 28.9 E 9 15 1016.2 - 0.0 - - - - - - -
28/11:00am 28.9 ESE 6 11 1016.7 - 0.0 - - - - - - -
28/10:30am 27.8 E 6 12 1016.8 - 0.0 - - - - - - -
28/10:00am 27.0 ESE 4 8 1016.9 - 0.0 - - - - - - -
28/09:30am 26.2 E 4 7 1016.9 - 0.0 - - - - - - -
28/09:00am 25.6 SE 2 4 1016.9 - 0.0 - - - - - - -
28/08:30am 24.4 SE 3 5 1016.7 - 0.0 - - - - - - -
28/08:00am 23.6 SE 4 7 1016.6 - 0.0 - - - - - - -
28/07:30am 22.2 SE 3 6 1016.1 - 0.0 - - - - - - -
28/07:00am 21.7 SE 3 4 1016.0 - 0.0 - - - - - - -
28/06:30am 21.8 SE 3 4 1015.7 - 0.0 - - - - - - -
28/06:00am 21.9 SE 3 4 1015.5 - 0.0 - - - - - - -
28/05:30am 21.4 SE 3 4 1015.1 - 0.0 - - - - - - -
28/05:00am 20.7 SSE 2 3 1015.0 - 0.0 - - - - - - -
28/04:30am 21.6 SSE 3 4 1014.9 - 0.0 - - - - - - -
28/04:00am 21.9 SSE 3 5 1014.9 - 0.0 - - - - - - -
28/03:30am 22.8 SSE 3 5 1014.8 - 0.0 - - - - - - -
28/03:00am 22.4 SE 3 4 1015.0 - 0.0 - - - - - - -

Other Formats:

Comma delimited format used in spreadsheet applications
http://www.bom.gov.au/fwo/IDD60701/IDD60701.99510.axf

JavaScript Object Notation format (JSON) in row-major order
http://www.bom.gov.au/fwo/IDD60701/IDD60701.99510.json